Carlos City, Indiana
Current Conditions -  °F | °C
As of 8:53 AM on Tuesday 27 Jan 2015 (Local Time) from KMIE Reporting Station
Overcast Overcast  
Wind Chill: 12°   Ceiling: 6500
Heat Index: 19°   Visibility: 8mi
Dew Point: 12°   Wind: 5mph
Humidity: 74%   Direction: 90°E
Pressure: 30.05"   Gusts: NA
Location:  40.0606°N, 84.9258°W
Report Text: KMIE 271353Z 09004KT 8SM BKN065 OVC080 M07/M11 A3005 RMK AO2 SLP187 T10721111
Loading
Personal Weather Stations






























Interactive Weather Map New forecast layout! Learn more

10-Day Weather Forecast

Advertisements
Track Severe Weather on mobile